Home > Products > Valid Products > TAF

000
FTUS41 KBUF 042200 AAB
TAFART
TAF AMD
KART 042207Z 0422/0518 24012G18KT P6SM SCT040 OVC200
      TEMPO 0422/0501 BKN040
     FM050100 26012KT P6SM VCSH SCT025 BKN040
     FM050500 28010KT P6SM SCT040 BKN200
     FM051200 34008KT P6SM SCT040 BKN200=



000
FTUS41 KBUF 042200 AAB
TAFROC
TAF AMD
KROC 042204Z 0422/0518 27012KT P6SM OVC025
      TEMPO 0423/0501 BKN035
     FM050100 28010KT P6SM VCSH OVC025
     FM050500 30010KT P6SM SCT025 BKN035
     FM051200 32010KT P6SM SCT050 BKN140=



000
FTUS41 KBUF 042200 AAB
TAFROC
TAF AMD
KROC 042204Z 0422/0518 27012KT P6SM OVC025
      TEMPO 0423/0501 BKN035
     FM050100 28010KT P6SM VCSH OVC025
     FM050500 30010KT P6SM SCT025 BKN035
     FM051200 32010KT P6SM SCT050 BKN140=



000
FTUS41 KBUF 042200 AAB
TAFIAG
TAF AMD
KIAG 042201Z 0422/0518 25014KT P6SM SCT025 BKN035
      TEMPO 0422/0501 BKN025
     FM050100 27012KT 6SM -SN BKN025
     FM050400 29010KT P6SM BKN035
     FM051200 32010KT P6SM SCT050 BKN140=



000
FTUS41 KBUF 042100 AAB
TAFBUF
TAF AMD
KBUF 042158Z 0422/0518 24014G24KT P6SM SCT025 BKN035
      TEMPO 0422/0501 BKN025
     FM050100 26012KT 6SM -SN BKN025
     FM050400 29010KT P6SM BKN035
     FM051200 32010KT P6SM SCT050 BKN140=



000
FTUS41 KBUF 042000 AAA
TAFBUF
TAF AMD
KBUF 042043Z 0421/0518 25015KT P6SM OVC035
     FM042200 26014G20KT 6SM BR VCSH OVC030
      TEMPO 0423/0502 4SM -SHSN BKN020
     FM050200 29010KT P6SM OVC025
     FM050600 31011KT P6SM OVC035
     FM050800 31010KT P6SM BKN080
     FM051700 28008KT P6SM BKN050=



000
FTUS41 KBUF 042000 AAA
TAFIAG
TAF AMD
KIAG 042043Z 0421/0518 25015KT P6SM OVC035
     FM042200 28012G22KT 6SM BR VCSH OVC040
      TEMPO 0422/0502 4SM -SHSN BKN020
     FM050200 31011KT P6SM OVC040
     FM050500 31012KT P6SM BKN025
     FM050600 31012KT P6SM BKN035
     FM050800 30011KT P6SM BKN080=



000
FTUS41 KBUF 042000 AAA
TAFART
TAF AMD
KART 042043Z 0421/0518 24014G22KT P6SM BKN045
      TEMPO 0423/0501 5SM -SHSN BKN025
     FM050100 28011G19KT P6SM OVC060
     FM050300 29011KT P6SM OVC140
     FM050500 30011KT P6SM BKN070
     FM050800 29009KT P6SM BKN080
     FM051400 33006KT P6SM BKN080=



000
FTUS41 KBUF 042000 AAA
TAFJHW
TAF AMD
KJHW 042043Z 0421/0518 28012KT P6SM OVC025
     FM050000 29010G17KT P6SM VCSH OVC015
     FM050600 33009KT P6SM OVC012
     FM051100 33007KT P6SM OVC045
     FM051300 32007KT P6SM OVC080
      AMD LTD TO CLD VIS AND WIND=



000
FTUS41 KBUF 042000 AAA
TAFROC
TAF AMD
KROC 042043Z 0421/0518 26016G25KT P6SM BKN035
     FM042200 27013G24KT 6SM BR VCSH OVC030
      TEMPO 0422/0502 4SM -SHSN BKN020
     FM050400 30012KT P6SM VCSH OVC025
     FM050700 32013KT P6SM OVC050
     FM050800 31012KT P6SM OVC080
     FM051500 30010KT P6SM BKN020=



000
FTUS41 KBUF 042000 AAA
TAFROC
TAF AMD
KROC 042043Z 0421/0518 26016G25KT P6SM BKN035
     FM042200 27013G24KT 6SM BR VCSH OVC030
      TEMPO 0422/0502 4SM -SHSN BKN020
     FM050400 30012KT P6SM VCSH OVC025
     FM050700 32013KT P6SM OVC050
     FM050800 31012KT P6SM OVC080
     FM051500 30010KT P6SM BKN020=



000
FTUS41 KBUF 042000 AAA
TAFIAG
TAF AMD
KIAG 042043Z 0421/0518 25015KT P6SM OVC035
     FM042200 28012G22KT 6SM BR VCSH OVC040
      TEMPO 0422/0502 4SM -SHSN BKN020
     FM050200 31011KT P6SM OVC040
     FM050500 31012KT P6SM BKN025
     FM050600 31012KT P6SM BKN035
     FM050800 30011KT P6SM BKN080=



000
FTUS41 KBUF 042000 AAA
TAFBUF
TAF AMD
KBUF 042043Z 0421/0518 25015KT P6SM OVC035
     FM042200 26014G20KT 6SM BR VCSH OVC030
      TEMPO 0423/0502 4SM -SHSN BKN020
     FM050200 29010KT P6SM OVC025
     FM050600 31011KT P6SM OVC035
     FM050800 31010KT P6SM BKN080
     FM051700 28008KT P6SM BKN050=



000
FTUS41 KBUF 042000 AAA
TAFJHW
TAF AMD
KJHW 042043Z 0421/0518 28012KT P6SM OVC025
     FM050000 29010G17KT P6SM VCSH OVC015
     FM050600 33009KT P6SM OVC012
     FM051100 33007KT P6SM OVC045
     FM051300 32007KT P6SM OVC080
      AMD LTD TO CLD VIS AND WIND=



000
FTUS41 KBUF 042000 AAA
TAFART
TAF AMD
KART 042043Z 0421/0518 24014G22KT P6SM BKN045
      TEMPO 0423/0501 5SM -SHSN BKN025
     FM050100 28011G19KT P6SM OVC060
     FM050300 29011KT P6SM OVC140
     FM050500 30011KT P6SM BKN070
     FM050800 29009KT P6SM BKN080
     FM051400 33006KT P6SM BKN080=



000
FTUS41 KBUF 041700
TAFJHW
TAF
KJHW 041736Z 0418/0518 25012G18KT P6SM OVC015
     FM050000 29010G17KT P6SM VCSH OVC015
     FM050600 33009KT P6SM OVC012
     FM051100 33007KT P6SM OVC045
     FM051300 32007KT P6SM OVC080
      AMD LTD TO CLD VIS AND WIND=



000
FTUS41 KBUF 041700
TAFIAG
TAF
KIAG 041736Z 0418/0518 26015KT P6SM OVC035
     FM042200 28012G22KT 6SM BR VCSH OVC040
      TEMPO 0422/0502 4SM -SHSN BKN020
     FM050200 31011KT P6SM OVC040
     FM050500 31012KT P6SM BKN025
     FM050600 31012KT P6SM BKN035
     FM050800 30011KT P6SM BKN080=



000
FTUS41 KBUF 041700
TAFART
TAF
KART 041736Z 0418/0518 24014G22KT P6SM BKN045
      TEMPO 0421/0501 5SM -SHSN BKN025
     FM050100 28011G19KT P6SM OVC060
     FM050300 29011KT P6SM OVC140
     FM050500 30011KT P6SM BKN070
     FM050800 29009KT P6SM BKN080
     FM051400 33006KT P6SM BKN080=



000
FTUS41 KBUF 041700
TAFROC
TAF
KROC 041736Z 0418/0518 26016G25KT P6SM BKN035
     FM042200 27013G24KT 6SM BR VCSH OVC030
      TEMPO 0422/0502 4SM -SHSN BKN020
     FM050400 30012KT P6SM VCSH OVC025
     FM050700 32013KT P6SM OVC050
     FM050800 31012KT P6SM OVC080
     FM051500 30010KT P6SM BKN020=



000
FTUS41 KBUF 041700
TAFBUF
TAF
KBUF 041736Z 0418/0518 24016KT P6SM OVC035
     FM042200 26014G20KT 6SM BR VCSH OVC030
      TEMPO 0422/0502 4SM -SHSN BKN020
     FM050200 29010KT P6SM OVC025
     FM050600 31011KT P6SM OVC035
     FM050800 31010KT P6SM BKN080
     FM051700 28008KT P6SM BKN050=



000
FTUS41 KBUF 041700
TAFROC
TAF
KROC 041736Z 0418/0518 26016G25KT P6SM BKN035
     FM042200 27013G24KT 6SM BR VCSH OVC030
      TEMPO 0422/0502 4SM -SHSN BKN020
     FM050400 30012KT P6SM VCSH OVC025
     FM050700 32013KT P6SM OVC050
     FM050800 31012KT P6SM OVC080
     FM051500 30010KT P6SM BKN020=



000
FTUS41 KBUF 041700
TAFJHW
TAF
KJHW 041736Z 0418/0518 25012G18KT P6SM OVC015
     FM050000 29010G17KT P6SM VCSH OVC015
     FM050600 33009KT P6SM OVC012
     FM051100 33007KT P6SM OVC045
     FM051300 32007KT P6SM OVC080
      AMD LTD TO CLD VIS AND WIND=



000
FTUS41 KBUF 041700
TAFIAG
TAF
KIAG 041736Z 0418/0518 26015KT P6SM OVC035
     FM042200 28012G22KT 6SM BR VCSH OVC040
      TEMPO 0422/0502 4SM -SHSN BKN020
     FM050200 31011KT P6SM OVC040
     FM050500 31012KT P6SM BKN025
     FM050600 31012KT P6SM BKN035
     FM050800 30011KT P6SM BKN080=



000
FTUS41 KBUF 041700
TAFBUF
TAF
KBUF 041736Z 0418/0518 24016KT P6SM OVC035
     FM042200 26014G20KT 6SM BR VCSH OVC030
      TEMPO 0422/0502 4SM -SHSN BKN020
     FM050200 29010KT P6SM OVC025
     FM050600 31011KT P6SM OVC035
     FM050800 31010KT P6SM BKN080
     FM051700 28008KT P6SM BKN050=



000
FTUS41 KBUF 041700
TAFART
TAF
KART 041736Z 0418/0518 24014G22KT P6SM BKN045
      TEMPO 0421/0501 5SM -SHSN BKN025
     FM050100 28011G19KT P6SM OVC060
     FM050300 29011KT P6SM OVC140
     FM050500 30011KT P6SM BKN070
     FM050800 29009KT P6SM BKN080
     FM051400 33006KT P6SM BKN080=



000
FTUS41 KBUF 041500 AAA
TAFART
TAF AMD
KART 041519Z 0415/0512 26011KT P6SM VCSH BKN030
     FM041700 25014KT P6SM BKN020
     FM042300 26013KT P6SM BKN045
     FM050100 26011G18KT P6SM BKN090
     FM050600 27009KT P6SM BKN200=



000
FTUS41 KBUF 041500 AAA
TAFJHW
TAF AMD
KJHW 041519Z 0415/0512 26011KT P6SM OVC015
     FM050600 33009KT P6SM OVC012
     FM051000 33006KT P6SM OVC060
      AMD LTD TO CLD VIS AND WIND=



000
FTUS41 KBUF 041500 AAA
TAFBUF
TAF AMD
KBUF 041519Z 0415/0512 26010KT P6SM BKN030
     FM042300 30010G16KT P6SM BKN012
     FM050300 30007KT P6SM BKN025
     FM050700 31009KT P6SM BKN035
     FM050900 30007KT P6SM BKN140=



000
FTUS41 KBUF 041500 AAA
TAFIAG
TAF AMD
KIAG 041519Z 0415/0512 26015KT P6SM SCT025 SCT150
     FM041800 25010G16KT P6SM BKN030
     FM042200 29009KT P6SM BKN015
     FM050200 32010G16KT P6SM BKN025
     FM050700 31012KT P6SM BKN200=



000
FTUS41 KBUF 041500 AAA
TAFROC
TAF AMD
KROC 041519Z 0415/0512 27011KT P6SM OVC030
     FM042300 31011G17KT P6SM OVC012
     FM050300 31010G18KT P6SM BKN035
     FM050500 30011G18KT P6SM BKN015=



000
FTUS41 KBUF 041100
TAFART
TAF
KART 041125Z 0412/0512 26011KT P6SM BKN035
     FM041700 25014KT P6SM BKN020
     FM042300 26013KT P6SM BKN045
     FM050100 26011G18KT P6SM BKN090
     FM050600 27009KT P6SM BKN200=



000
FTUS41 KBUF 041100
TAFJHW
TAF
KJHW 041125Z 0412/0512 27007KT P6SM OVC008
     FM041300 26011KT P6SM OVC015
     FM050600 33009KT P6SM OVC012
     FM051000 33006KT P6SM OVC060
      AMD LTD TO CLD VIS AND WIND=



000
FTUS41 KBUF 041100
TAFROC
TAF
KROC 041125Z 0412/0512 27011KT P6SM OVC020
     FM042300 31011G17KT P6SM OVC012
     FM050300 31010G18KT P6SM BKN035
     FM050500 30011G18KT P6SM BKN015=



000
FTUS41 KBUF 041100
TAFBUF
TAF
KBUF 041125Z 0412/0512 26010KT P6SM BKN025
     FM042300 30010G16KT P6SM BKN012
     FM050300 30007KT P6SM BKN025
     FM050700 31009KT P6SM BKN035
     FM050900 30007KT P6SM BKN140=



000
FTUS41 KBUF 041100
TAFIAG
TAF
KIAG 041125Z 0412/0512 27015KT P6SM OVC025
     FM041800 25010G16KT P6SM BKN020
     FM042200 29009KT P6SM BKN015
     FM050200 32010G16KT P6SM BKN025
     FM050700 31012KT P6SM BKN200=



000
FTUS41 KBUF 041100
TAFJHW
TAF
KJHW 041125Z 0412/0512 27007KT P6SM OVC008
     FM041300 26011KT P6SM OVC015
     FM050600 33009KT P6SM OVC012
     FM051000 33006KT P6SM OVC060
      AMD LTD TO CLD VIS AND WIND=



000
FTUS41 KBUF 041100
TAFIAG
TAF
KIAG 041125Z 0412/0512 27015KT P6SM OVC025
     FM041800 25010G16KT P6SM BKN020
     FM042200 29009KT P6SM BKN015
     FM050200 32010G16KT P6SM BKN025
     FM050700 31012KT P6SM BKN200=



000
FTUS41 KBUF 041100
TAFROC
TAF
KROC 041125Z 0412/0512 27011KT P6SM OVC020
     FM042300 31011G17KT P6SM OVC012
     FM050300 31010G18KT P6SM BKN035
     FM050500 30011G18KT P6SM BKN015=



000
FTUS41 KBUF 041100
TAFART
TAF
KART 041125Z 0412/0512 26011KT P6SM BKN035
     FM041700 25014KT P6SM BKN020
     FM042300 26013KT P6SM BKN045
     FM050100 26011G18KT P6SM BKN090
     FM050600 27009KT P6SM BKN200=



000
FTUS41 KBUF 041100
TAFBUF
TAF
KBUF 041125Z 0412/0512 26010KT P6SM BKN025
     FM042300 30010G16KT P6SM BKN012
     FM050300 30007KT P6SM BKN025
     FM050700 31009KT P6SM BKN035
     FM050900 30007KT P6SM BKN140=



000
FTUS41 KBUF 040900 AAA
TAFROC
TAF AMD
KROC 040947Z 0410/0506 30011KT 5SM -DZSN OVC008
     FM041200 26011G19KT P6SM BKN012
     FM041500 26012G18KT P6SM BKN015
     FM042300 31011G17KT P6SM OVC012
     FM050500 30011G18KT P6SM BKN015=



000
FTUS41 KBUF 040900 AAA
TAFBUF
TAF AMD
KBUF 040947Z 0410/0506 25011KT P6SM BKN012
     FM041700 25011KT P6SM BKN020
     FM042300 30010G16KT P6SM BKN012
     FM050300 30007KT P6SM BKN025=



000
FTUS41 KBUF 040900 AAA
TAFART
TAF AMD
KART 040947Z 0410/0506 24011G19KT P6SM OVC040
     FM041700 25014KT P6SM BKN020
     FM042200 26014KT P6SM BKN040
     FM050100 26011G18KT P6SM BKN090=



000
FTUS41 KBUF 040900 AAA
TAFIAG
TAF AMD
KIAG 040947Z 0410/0506 25013KT P6SM BKN020
     FM041700 25010G16KT P6SM BKN025
     FM042200 29009KT P6SM BKN015
     FM050200 32010G16KT P6SM BKN025
     FM050400 31012KT P6SM BKN035=



000
FTUS41 KBUF 040900 AAA
TAFJHW
TAF AMD
KJHW 040947Z 0410/0506 28006KT 5SM -FZDZ OVC006
     FM041300 25006KT 6SM -FZDZ OVC012
     FM041700 26010KT P6SM OVC015
     FM050300 29009KT P6SM OVC003
      AMD LTD TO CLD VIS AND WIND=



000
FTUS41 KBUF 040500 RRA
TAFJHW
TAF
KJHW 040536Z 0406/0506 25015G25KT P6SM -RA OVC008
     FM041000 26012KT P6SM VCSH BKN007
     FM041300 27012G18KT P6SM SCT007 OVC015
     FM041800 27012KT P6SM BKN035
     FM042100 28010KT P6SM OVC060
      AMD LTD TO CLD VIS AND WIND=



000
FTUS41 KBUF 040500 RRA
TAFJHW
TAF
KJHW 040536Z 0406/0506 25015G25KT P6SM -RA OVC008
     FM041000 26012KT P6SM VCSH BKN007
     FM041300 27012G18KT P6SM SCT007 OVC015
     FM041800 27012KT P6SM BKN035
     FM042100 28010KT P6SM OVC060
      AMD LTD TO CLD VIS AND WIND=



000
FTUS41 KBUF 040500
TAFIAG
TAF
KIAG 040535Z 0406/0506 25015G25KT 5SM -RA BR OVC012
     FM040730 25015G25KT P6SM VCSH SCT007 OVC015
     FM041000 26015G25KT P6SM SCT007 OVC025
     FM041400 26012G22KT P6SM SCT025 BKN035
     FM041800 27012G18KT P6SM BKN080
     FM042200 28012KT P6SM BKN110
     FM050300 33008KT P6SM BKN090=



000
FTUS41 KBUF 040500
TAFBUF
TAF
KBUF 040520Z 0406/0506 25015G25KT 4SM -RA BR OVC007
     FM040800 25015G25KT P6SM VCSH SCT007 OVC015
     FM041200 26012G20KT P6SM SCT015 OVC035
     FM041800 26011G18KT P6SM BKN060
     FM042100 27012KT P6SM BKN140
     FM050200 32007KT P6SM BKN120=



000
FTUS41 KBUF 040500
TAFROC
TAF
KROC 040520Z 0406/0506 25015G25KT 6SM -RA OVC015
     FM040800 25015G25KT P6SM SCT007 OVC015
     FM041100 26012G22KT P6SM SCT015 OVC025
     FM041400 26014G22KT P6SM SCT015 OVC035
     FM041800 27014G22KT P6SM BKN080
     FM050000 30010KT P6SM BKN120=



000
FTUS41 KBUF 040500
TAFIAG
TAF
KIAG 040520Z 0406/0506 25015G25KT 5SM -RA BR OVC007
     FM040730 25015G25KT P6SM VCSH SCT007 OVC015
     FM041000 26015G25KT P6SM SCT007 OVC025
     FM041400 26012G22KT P6SM SCT025 BKN035
     FM041800 27012G18KT P6SM BKN080
     FM042200 28012KT P6SM BKN110
     FM050300 33008KT P6SM BKN090=



000
FTUS41 KBUF 040500
TAFART
TAF
KART 040520Z 0406/0506 22015G25KT 4SM -FZRA BR OVC015
      TEMPO 0406/0408 2SM -FZRA BR
     FM040800 24015G25KT P6SM VCSH SCT007 OVC015
     FM041200 24015G25KT P6SM SCT015 OVC025
     FM041600 25015G25KT P6SM SCT025 BKN035
     FM042000 26012G22KT P6SM BKN060
     FM042300 26012KT P6SM SCT100 BKN200=



000
FTUS41 KBUF 040500
TAFJHW
TAF
KJHW 040520Z 0406/0506 25015G25KT 6SM -RA BR OVC004
     FM041000 26012KT P6SM VCSH BKN007
     FM041300 27012G18KT P6SM SCT007 OVC015
     FM041800 27012KT P6SM BKN035
     FM042100 28010KT P6SM OVC060
      AMD LTD TO CLD VIS AND WIND=



000
FTUS41 KBUF 040300 AAC
TAFART
TAF AMD
KART 040343Z 0404/0424 19012G22KT 4SM -FZRA SCT015 BKN025
     FM040700 22014G22KT P6SM VCSH SCT007 OVC015
     FM041200 24014G22KT P6SM SCT015 OVC025
     FM041600 25014G24KT P6SM BKN035
     FM042000 26014G22KT P6SM BKN070
     FM042300 26012KT P6SM BKN250=



000
FTUS41 KBUF 040300 AAB
TAFJHW
TAF AMD
KJHW 040342Z 0404/0424 25012G18KT P6SM OVC007
     FM041200 26012KT P6SM VCSH SCT003 OVC015
     FM041600 27012KT P6SM BKN025
     FM042100 28012KT P6SM SCT025 OVC050
      AMD LTD TO CLD VIS AND WIND=



000
FTUS41 KBUF 040300 AAB
TAFROC
TAF AMD
KROC 040341Z 0404/0424 24014KT P6SM SCT007 OVC015
     FM041000 26014G22KT P6SM SCT015 OVC025
     FM041400 26014G22KT P6SM OVC040
     FM042000 28014G20KT P6SM BKN130=



000
FTUS41 KBUF 040300 AAC
TAFIAG
TAF AMD
KIAG 040340Z 0404/0424 25018G28KT P6SM SCT007 OVC015
      TEMPO 0404/0407 BKN007
     FM040700 25015G25KT P6SM OVC015
     FM041200 26013G23KT P6SM SCT015 OVC035
     FM041800 26012G20KT P6SM BKN100
     FM042300 29010KT P6SM BKN070=



000
FTUS41 KBUF 040300 AAC
TAFBUF
TAF AMD
KBUF 040339Z 0404/0424 25020G30KT P6SM SCT006 OVC015
      TEMPO 0404/0406 BKN006
     FM040600 25015G25KT P6SM OVC015
     FM041200 26012G22KT P6SM SCT015 BKN035
     FM041800 26012G20KT P6SM SCT035 BKN070
     FM042100 27012KT P6SM BKN130=



000
FTUS41 KBUF 040300 AAC
TAFBUF
TAF AMD
KBUF 040339Z 0404/0424 25020G30KT P6SM SCT006 OVC015
      TEMPO 0404/0406 BKN006
     FM040600 25015G25KT P6SM OVC015
     FM041200 26012G22KT P6SM SCT015 BKN035
     FM041800 26012G20KT P6SM SCT035 BKN070
     FM042100 27012KT P6SM BKN130=



000
FTUS41 KBUF 040300 AAB
TAFART
TAF AMD
KART 040301Z 0403/0424 20012G22KT 4SM -FZRA SCT015 BKN025
     FM040700 22014G22KT P6SM VCSH SCT007 OVC015
     FM041200 24014G22KT P6SM SCT015 OVC025
     FM041600 25014G24KT P6SM BKN035
     FM042000 26014G22KT P6SM BKN070
     FM042300 26012KT P6SM BKN250=



000
FTUS41 KBUF 040300 AAB
TAFART
TAF AMD
KART 040301Z 0403/0424 20012G22KT 4SM -FZRA SCT015 BKN025
     FM040700 22014G22KT P6SM VCSH SCT007 OVC015
     FM041200 24014G22KT P6SM SCT015 OVC025
     FM041600 25014G24KT P6SM BKN035
     FM042000 26014G22KT P6SM BKN070
     FM042300 26012KT P6SM BKN250=



000
FTUS41 KBUF 040200 AAA
TAFROC
TAF AMD
KROC 040226Z 0402/0424 23015G25KT P6SM SCT007 OVC025
      TEMPO 0406/0410 BKN015
     FM041000 26014G22KT P6SM SCT015 OVC025
     FM041400 26014G22KT P6SM OVC040
     FM042000 28014G20KT P6SM BKN130=



000
FTUS41 KBUF 040200 AAA
TAFJHW
TAF AMD
KJHW 040226Z 0402/0424 23014G20KT 3SM BR VCSH OVC003
     FM040700 24014KT P6SM VCSH SCT003 OVC007
     FM041200 26010KT P6SM VCSH SCT003 OVC015
     FM041600 27012KT P6SM BKN025
     FM042100 28012KT P6SM SCT025 OVC050
      AMD LTD TO CLD VIS AND WIND=



000
FTUS41 KBUF 040200 AAA
TAFJHW
TAF AMD
KJHW 040226Z 0402/0424 23014G20KT 3SM BR VCSH OVC003
     FM040700 24014KT P6SM VCSH SCT003 OVC007
     FM041200 26010KT P6SM VCSH SCT003 OVC015
     FM041600 27012KT P6SM BKN025
     FM042100 28012KT P6SM SCT025 OVC050
      AMD LTD TO CLD VIS AND WIND=



000
FTUS41 KBUF 040200 AAB
TAFIAG
TAF AMD
KIAG 040225Z 0402/0424 24018G28KT P6SM VCSH OVC007
     FM040700 25014G22KT P6SM SCT007 OVC015
     FM041200 26014G22KT P6SM SCT015 OVC035
     FM041800 26014G20KT P6SM BKN100
     FM042300 29010KT P6SM BKN070=



000
FTUS41 KBUF 040200 AAB
TAFIAG
TAF AMD
KIAG 040225Z 0402/0424 24018G28KT P6SM VCSH OVC007
     FM040700 25014G22KT P6SM SCT007 OVC015
     FM041200 26014G22KT P6SM SCT015 OVC035
     FM041800 26014G20KT P6SM BKN100
     FM042300 29010KT P6SM BKN070=



000
FTUS41 KBUF 040200 AAB
TAFBUF
TAF AMD
KBUF 040224Z 0402/0424 24020G34KT 4SM -RA BR OVC004
     FM040700 24016G26KT P6SM VCSH SCT007 OVC015
     FM041200 26014G24KT P6SM SCT015 OVC035
     FM041800 26012G20KT P6SM SCT035 BKN070
     FM042100 27012KT P6SM BKN130=



000
FTUS41 KBUF 040200 AAB
TAFBUF
TAF AMD
KBUF 040224Z 0402/0424 24020G34KT 4SM -RA BR OVC004
     FM040700 24016G26KT P6SM VCSH SCT007 OVC015
     FM041200 26014G24KT P6SM SCT015 OVC035
     FM041800 26012G20KT P6SM SCT035 BKN070
     FM042100 27012KT P6SM BKN130=



000
FTUS41 KBUF 040100 AAA
TAFART
TAF AMD
KART 040106Z 0401/0424 17012G22KT 4SM -FZRA BKN025
     FM040300 20014G20KT P6SM -FZRA BKN007
     FM040700 22014G22KT P6SM VCSH SCT007 OVC015
     FM041200 24014G22KT P6SM SCT015 OVC025
     FM041600 25014G24KT P6SM BKN035
     FM042000 26014G22KT P6SM BKN070
     FM042300 26012KT P6SM BKN250=



000
FTUS41 KBUF 040000 CCA
TAFART
TAF COR
KART 040056Z 0400/0424 17012G22KT 4SM -SN BKN025
     FM040230 19014G20KT P6SM BKN007
     FM040700 22014G22KT P6SM VCSH SCT007 OVC015
     FM041200 24014G22KT P6SM SCT015 OVC025
     FM041600 25014G24KT P6SM BKN035
     FM042000 26014G22KT P6SM BKN070
     FM042300 26012KT P6SM BKN250=



000
FTUS41 KBUF 040000 CCA
TAFART
TAF COR
KART 040056Z 0400/0424 17012G22KT 4SM -SN BKN025
     FM040230 19014G20KT P6SM BKN007
     FM040700 22014G22KT P6SM VCSH SCT007 OVC015
     FM041200 24014G22KT P6SM SCT015 OVC025
     FM041600 25014G24KT P6SM BKN035
     FM042000 26014G22KT P6SM BKN070
     FM042300 26012KT P6SM BKN250=



000
FTUS41 KBUF 040000 AAA
TAFIAG
TAF AMD
KIAG 040053Z 0401/0424 21014KT 3SM -RA BR OVC004
      TEMPO 0402/0404 2SM BR
     FM040400 24014G20KT 3SM BR VCSH OVC007
     FM040700 25014G22KT P6SM SCT007 OVC015
     FM041200 26014G22KT P6SM SCT015 OVC035
     FM041800 26014G20KT P6SM BKN100
     FM042300 29010KT P6SM BKN070=



000
FTUS41 KBUF 040000 AAA
TAFIAG
TAF AMD
KIAG 040053Z 0401/0424 21014KT 3SM -RA BR OVC004
      TEMPO 0402/0404 2SM BR
     FM040400 24014G20KT 3SM BR VCSH OVC007
     FM040700 25014G22KT P6SM SCT007 OVC015
     FM041200 26014G22KT P6SM SCT015 OVC035
     FM041800 26014G20KT P6SM BKN100
     FM042300 29010KT P6SM BKN070=



000
FTUS41 KBUF 040000 AAA
TAFBUF
TAF AMD
KBUF 040051Z 0401/0424 21014KT 2SM -RA BR OVC007
     FM040300 22014KT 3SM BR VCSH OVC007 WS020/24045KT
     FM040430 23014KT P6SM VCSH SCT003 OVC007 WS020/24045KT
     FM040700 24014G22KT P6SM VCSH SCT007 OVC015
     FM041200 26014G24KT P6SM SCT015 OVC035
     FM041800 26012G20KT P6SM SCT035 BKN070
     FM042100 27012KT P6SM BKN130=



000
FTUS41 KBUF 040000 AAA
TAFBUF
TAF AMD
KBUF 040051Z 0401/0424 21014KT 2SM -RA BR OVC007
     FM040300 22014KT 3SM BR VCSH OVC007 WS020/24045KT
     FM040430 23014KT P6SM VCSH SCT003 OVC007 WS020/24045KT
     FM040700 24014G22KT P6SM VCSH SCT007 OVC015
     FM041200 26014G24KT P6SM SCT015 OVC035
     FM041800 26012G20KT P6SM SCT035 BKN070
     FM042100 27012KT P6SM BKN130=



000
FTUS41 KBUF 032300
TAFIAG
TAF
KIAG 032339Z 0400/0424 20012KT 3SM -FZRA BR BKN007
     FM040230 22014KT 2SM BR VCSH BKN007
     FM040700 24014G22KT P6SM SCT007 OVC015
     FM041200 26014G22KT P6SM SCT015 OVC035
     FM041800 26014G20KT P6SM BKN100
     FM042300 29010KT P6SM BKN070=



000
FTUS41 KBUF 032300
TAFBUF
TAF
KBUF 032339Z 0400/0424 20014KT 2SM -FZRA BR SCT007 OVC015
     FM040300 22014KT 3SM BR VCSH BKN007 WS020/24045KT
     FM040430 23014KT P6SM VCSH SCT003 OVC007 WS020/24045KT
     FM040700 24014G22KT P6SM VCSH SCT007 OVC015
     FM041200 26014G24KT P6SM SCT015 OVC035
     FM041800 26012G20KT P6SM SCT035 BKN070
     FM042100 27012KT P6SM BKN130=



000
FTUS41 KBUF 032300
TAFART
TAF
KART 032339Z 0400/0424 17012G22KT 2SM -SN BKN007
      TEMPO 0400/0402 1SM -SN VV015
     FM040200 19014G20KT 4SM -SNPL BR BKN007
     FM040700 22014G22KT P6SM VCSH SCT007 OVC015
     FM041200 24014G22KT P6SM SCT015 OVC025
     FM041600 25014G24KT P6SM BKN035
     FM042000 26014G22KT P6SM BKN070
     FM042300 26012KT P6SM BKN250=



000
FTUS41 KBUF 032300
TAFIAG
TAF
KIAG 032339Z 0400/0424 20012KT 3SM -FZRA BR BKN007
     FM040230 22014KT 2SM BR VCSH BKN007
     FM040700 24014G22KT P6SM SCT007 OVC015
     FM041200 26014G22KT P6SM SCT015 OVC035
     FM041800 26014G20KT P6SM BKN100
     FM042300 29010KT P6SM BKN070=



000
FTUS41 KBUF 032300
TAFJHW
TAF
KJHW 032339Z 0400/0424 20014G20KT P6SM OVC007
     FM040300 23014G22KT P6SM VCSH OVC003
     FM040700 24014KT P6SM VCSH SCT003 OVC007
     FM041200 26010KT P6SM VCSH SCT003 OVC015
     FM041600 27012KT P6SM BKN025
     FM042100 28012KT P6SM SCT025 OVC050
      AMD LTD TO CLD VIS AND WIND=



000
FTUS41 KBUF 032300
TAFROC
TAF
KROC 032339Z 0400/0424 18012KT 6SM -FZRA SCT025 OVC035
     FM040200 20014KT 3SM BR VCSH SCT007 OVC025
     FM040500 23014G22KT 2SM BR VCSH SCT003 OVC015
     FM041000 26014G22KT P6SM SCT015 OVC025
     FM041400 26014G22KT P6SM OVC040
     FM042000 28014G20KT P6SM BKN130=



000
FTUS41 KBUF 032300
TAFROC
TAF
KROC 032339Z 0400/0424 18012KT 6SM -FZRA SCT025 OVC035
     FM040200 20014KT 3SM BR VCSH SCT007 OVC025
     FM040500 23014G22KT 2SM BR VCSH SCT003 OVC015
     FM041000 26014G22KT P6SM SCT015 OVC025
     FM041400 26014G22KT P6SM OVC040
     FM042000 28014G20KT P6SM BKN130=



000
FTUS41 KBUF 032300
TAFART
TAF
KART 032339Z 0400/0424 17012G22KT 2SM -SN BKN007
      TEMPO 0400/0402 1SM -SN VV015
     FM040200 19014G20KT 4SM -SNPL BR BKN007
     FM040700 22014G22KT P6SM VCSH SCT007 OVC015
     FM041200 24014G22KT P6SM SCT015 OVC025
     FM041600 25014G24KT P6SM BKN035
     FM042000 26014G22KT P6SM BKN070
     FM042300 26012KT P6SM BKN250=



000
FTUS41 KBUF 032300
TAFJHW
TAF
KJHW 032339Z 0400/0424 20014G20KT P6SM OVC007
     FM040300 23014G22KT P6SM VCSH OVC003
     FM040700 24014KT P6SM VCSH SCT003 OVC007
     FM041200 26010KT P6SM VCSH SCT003 OVC015
     FM041600 27012KT P6SM BKN025
     FM042100 28012KT P6SM SCT025 OVC050
      AMD LTD TO CLD VIS AND WIND=



000
FTUS41 KBUF 032300
TAFBUF
TAF
KBUF 032339Z 0400/0424 20014KT 2SM -FZRA BR SCT007 OVC015
     FM040300 22014KT 3SM BR VCSH BKN007 WS020/24045KT
     FM040430 23014KT P6SM VCSH SCT003 OVC007 WS020/24045KT
     FM040700 24014G22KT P6SM VCSH SCT007 OVC015
     FM041200 26014G24KT P6SM SCT015 OVC035
     FM041800 26012G20KT P6SM SCT035 BKN070
     FM042100 27012KT P6SM BKN130=



000
FTUS41 KBUF 032300 AAB
TAFJHW
TAF AMD
KJHW 032309Z 0323/0418 18012G18KT 6SM -FZRA BR OVC006
     FM040100 22014G22KT 6SM BR VCSH OVC004
     FM040600 24012G20KT 5SM BR OVC006
     FM041400 25012G20KT P6SM BKN015=



000
FTUS41 KBUF 032200 AAA
TAFART
TAF AMD
KART 032248Z 0323/0418 16012G20KT 2SM -SN OVC025
      TEMPO 0323/0402 1SM -SN BKN015
     FM040200 18012G20KT 3SM -SNPL OVC015
     FM040600 23014G22KT P6SM VCSH OVC015
     FM041100 24018KT P6SM OVC025=



000
FTUS41 KBUF 032200 AAA
TAFART
TAF AMD
KART 032248Z 0323/0418 16012G20KT 2SM -SN OVC025
      TEMPO 0323/0402 1SM -SN BKN015
     FM040200 18012G20KT 3SM -SNPL OVC015
     FM040600 23014G22KT P6SM VCSH OVC015
     FM041100 24018KT P6SM OVC025=



000
FTUS41 KBUF 032200 AAA
TAFJHW
TAF AMD
KJHW 032246Z 0323/0418 18012G18KT 5SM -FZRA BR OVC006
     FM040100 22014G22KT 5SM BR VCSH OVC004
     FM040600 24012G20KT 5SM BR OVC006
     FM041400 25012G20KT P6SM BKN015=



000
FTUS41 KBUF 032200 AAA
TAFROC
TAF AMD
KROC 032244Z 0323/0418 17012KT 5SM -FZRA BR OVC025
     FM040100 19012KT 6SM -FZRA BKN015
     FM040400 24014G20KT P6SM VCSH BKN025
     FM041200 27012G20KT P6SM SCT025 BKN035=



000
FTUS41 KBUF 032200 AAA
TAFROC
TAF AMD
KROC 032244Z 0323/0418 17012KT 5SM -FZRA BR OVC025
     FM040100 19012KT 6SM -FZRA BKN015
     FM040400 24014G20KT P6SM VCSH BKN025
     FM041200 27012G20KT P6SM SCT025 BKN035=



000
FTUS41 KBUF 032200 AAA
TAFIAG
TAF AMD
KIAG 032242Z 0323/0418 19012KT 4SM -FZRA BR OVC015
     FM040000 22014G20KT P6SM VCSH OVC015
      TEMPO 0400/0404 BKN007
     FM040400 25014G24KT P6SM SCT007 BKN015
     FM041200 26012G20KT P6SM SCT025 BKN035=



000
FTUS41 KBUF 032200 AAA
TAFBUF
TAF AMD
KBUF 032241Z 0323/0418 19012KT 5SM -FZRA SCT015 OVC025
     FM040000 21014G20KT P6SM VCSH OVC025
     FM040400 24014G24KT P6SM SCT007 BKN015
     FM041200 25012G20KT P6SM SCT025 BKN035=



000
FTUS41 KBUF 032200 AAA
TAFBUF
TAF AMD
KBUF 032241Z 0323/0418 19012KT 5SM -FZRA SCT015 OVC025
     FM040000 21014G20KT P6SM VCSH OVC025
     FM040400 24014G24KT P6SM SCT007 BKN015
     FM041200 25012G20KT P6SM SCT025 BKN035=



000
FTUS41 KBUF 031700
TAFART
TAF
KART 031735Z 0318/0418 16004KT P6SM OVC120
     FM032000 16010G20KT 1SM -SN OVC015
     FM040100 18016G26KT 2SM -FZRAPLSN OVC020
     FM040600 22019G30KT 4SM BR VCSH OVC020
     FM041100 24018KT P6SM OVC020=



000
FTUS41 KBUF 031700
TAFJHW
TAF
KJHW 031735Z 0318/0418 16008KT 1SM -SN OVC008
     FM032000 16014G24KT 2SM -SNPL OVC030
     FM032200 17016G24KT 6SM -FZRA OVC015
     FM040200 18018G24KT 6SM -RA OVC015
     FM040600 26013G21KT 5SM BR VCSH OVC007=



000
FTUS41 KBUF 031700
TAFIAG
TAF
KIAG 031735Z 0318/0418 16010KT 1/2SM SN OVC015
     FM032100 19010G21KT 2SM -SNPL OVC045
     FM032300 19012G22KT 5SM -FZRAPL OVC015
     FM040100 19014G27KT 6SM -RA OVC015
     FM040500 24015G25KT P6SM VCSH OVC015=



000
FTUS41 KBUF 031700
TAFROC
TAF
KROC 031735Z 0318/0418 18010G20KT 1SM -SN OVC015
     FM032300 16013G24KT 2SM -SNPL OVC035
     FM040000 17014G25KT 6SM -FZRA OVC035
     FM040200 19015G25KT 6SM -RA OVC025
     FM040700 23015G25KT P6SM VCSH OVC015=



000
FTUS41 KBUF 031700
TAFBUF
TAF
KBUF 031735Z 0318/0418 16006KT 1/2SM SN OVC015
     FM032100 16010G18KT 2SM -SNPL OVC045
     FM040000 18015G25KT 6SM -RA OVC020
     FM040500 25012G22KT P6SM VCSH OVC015=



000
FTUS41 KBUF 031700
TAFJHW
TAF
KJHW 031735Z 0318/0418 16008KT 1SM -SN OVC008
     FM032000 16014G24KT 2SM -SNPL OVC030
     FM032200 17016G24KT 6SM -FZRA OVC015
     FM040200 18018G24KT 6SM -RA OVC015
     FM040600 26013G21KT 5SM BR VCSH OVC007=



000
FTUS41 KBUF 031700
TAFIAG
TAF
KIAG 031735Z 0318/0418 16010KT 1/2SM SN OVC015
     FM032100 19010G21KT 2SM -SNPL OVC045
     FM032300 19012G22KT 5SM -FZRAPL OVC015
     FM040100 19014G27KT 6SM -RA OVC015
     FM040500 24015G25KT P6SM VCSH OVC015=



000
FTUS41 KBUF 031700
TAFBUF
TAF
KBUF 031735Z 0318/0418 16006KT 1/2SM SN OVC015
     FM032100 16010G18KT 2SM -SNPL OVC045
     FM040000 18015G25KT 6SM -RA OVC020
     FM040500 25012G22KT P6SM VCSH OVC015=



000
FTUS41 KBUF 031700
TAFROC
TAF
KROC 031735Z 0318/0418 18010G20KT 1SM -SN OVC015
     FM032300 16013G24KT 2SM -SNPL OVC035
     FM040000 17014G25KT 6SM -FZRA OVC035
     FM040200 19015G25KT 6SM -RA OVC025
     FM040700 23015G25KT P6SM VCSH OVC015=



000
FTUS41 KBUF 031700
TAFART
TAF
KART 031735Z 0318/0418 16004KT P6SM OVC120
     FM032000 16010G20KT 1SM -SN OVC015
     FM040100 18016G26KT 2SM -FZRAPLSN OVC020
     FM040600 22019G30KT 4SM BR VCSH OVC020
     FM041100 24018KT P6SM OVC020=



000
FTUS41 KBUF 031600 AAB
TAFROC
TAF AMD
KROC 031640Z 0317/0412 18006KT P6SM BKN060
     FM031730 15011G18KT 1SM -SN OVC015
     FM032300 16013G24KT 2SM -SNPL OVC035
     FM040000 17014G24KT 6SM -FZRA OVC035
     FM040200 19016G29KT 6SM -RA OVC025
     FM040700 23017G29KT 6SM BR VCSH OVC015=



000
FTUS41 KBUF 031600 AAB
TAFJHW
TAF AMD
KJHW 031635Z 0317/0412 16008KT 1SM -SN OVC008
     FM031900 16014G24KT 2SM -SNPL OVC030
     FM032100 17016G24KT 6SM -FZRA OVC015
     FM040000 18018G24KT 6SM -RA OVC007
     FM041100 26013G21KT 5SM BR VCSH OVC007
      AMD LTD TO CLD VIS AND WIND=



000
FTUS41 KBUF 031600 AAB
TAFJHW
TAF AMD
KJHW 031635Z 0317/0412 16008KT 1SM -SN OVC008
     FM031900 16014G24KT 2SM -SNPL OVC030
     FM032100 17016G24KT 6SM -FZRA OVC015
     FM040000 18018G24KT 6SM -RA OVC007
     FM041100 26013G21KT 5SM BR VCSH OVC007
      AMD LTD TO CLD VIS AND WIND=



000
FTUS41 KBUF 031600 AAB
TAFIAG
TAF AMD
KIAG 031633Z 0317/0412 14007KT 1SM -SN OVC015
     FM032200 15010G21KT 2SM -SNPL OVC045
     FM040100 19014G27KT 6SM -RA OVC015
     FM040700 24019G26KT 6SM BR VCSH OVC015=



000
FTUS41 KBUF 031600 AAB
TAFIAG
TAF AMD
KIAG 031633Z 0317/0412 14007KT 1SM -SN OVC015
     FM032200 15010G21KT 2SM -SNPL OVC045
     FM040100 19014G27KT 6SM -RA OVC015
     FM040700 24019G26KT 6SM BR VCSH OVC015=



000
FTUS41 KBUF 031600 AAB
TAFBUF
TAF AMD
KBUF 031632Z 0317/0412 16006KT 3/4SM -SN OVC015
     FM032100 16010G23KT 2SM -SNPL OVC045
     FM040000 18015G24KT 6SM -RA OVC020
     FM040800 25020G26KT P6SM VCSH OVC015=



000
FTUS41 KBUF 031600 AAB
TAFBUF
TAF AMD
KBUF 031632Z 0317/0412 16006KT 3/4SM -SN OVC015
     FM032100 16010G23KT 2SM -SNPL OVC045
     FM040000 18015G24KT 6SM -RA OVC020
     FM040800 25020G26KT P6SM VCSH OVC015=



000
FTUS41 KBUF 031400 AAA
TAFART
TAF AMD
KART 031441Z 0315/0412 16004KT P6SM OVC150
     FM032000 16008KT P6SM VCSH OVC070
     FM032200 16010G20KT 2SM -SN OVC035
     FM040100 18016G26KT 2SM -SNPLRA OVC020
     FM040800 22019G30KT 4SM BR VCSH OVC020
     FM041100 24018KT P6SM OVC020=



000
FTUS41 KBUF 031400 AAA
TAFART
TAF AMD
KART 031441Z 0315/0412 16004KT P6SM OVC150
     FM032000 16008KT P6SM VCSH OVC070
     FM032200 16010G20KT 2SM -SN OVC035
     FM040100 18016G26KT 2SM -SNPLRA OVC020
     FM040800 22019G30KT 4SM BR VCSH OVC020
     FM041100 24018KT P6SM OVC020=



000
FTUS41 KBUF 031400 AAA
TAFROC
TAF AMD
KROC 031439Z 0315/0412 21006KT P6SM BKN100
     FM031900 15011G22KT 2SM -SN OVC035
     FM032300 16013G24KT 2SM -SNPL OVC035
     FM040000 17014G24KT 6SM -FZRA OVC035
     FM040200 19016G29KT 6SM -RA OVC025
     FM040700 23017G29KT 6SM BR VCSH OVC015=



000
FTUS41 KBUF 031400 AAA
TAFIAG
TAF AMD
KIAG 031437Z 0315/0412 14006KT P6SM OVC060
     FM031900 15009KT 2SM -SN OVC045
     FM032200 15010G21KT 2SM -SNPL OVC045
     FM040100 19014G27KT 6SM -RA OVC015
     FM040700 24019G26KT 6SM BR VCSH OVC015=



000
FTUS41 KBUF 031400 AAA
TAFIAG
TAF AMD
KIAG 031437Z 0315/0412 14006KT P6SM OVC060
     FM031900 15009KT 2SM -SN OVC045
     FM032200 15010G21KT 2SM -SNPL OVC045
     FM040100 19014G27KT 6SM -RA OVC015
     FM040700 24019G26KT 6SM BR VCSH OVC015=



000
FTUS41 KBUF 031400 AAA
TAFJHW
TAF AMD
KJHW 031436Z 0315/0412 14005KT P6SM OVC050
     FM031700 16011G20KT 6SM -SN OVC035
     FM031900 16014G24KT 2SM -SNPL OVC030
     FM032100 17016G24KT 6SM -FZRA OVC015
     FM040000 18018G24KT 6SM -RA OVC007
     FM041100 26013G21KT 5SM BR VCSH OVC007
      AMD LTD TO CLD VIS AND WIND=



000
FTUS41 KBUF 031400 AAA
TAFBUF
TAF AMD
KBUF 031434Z 0315/0412 15006KT P6SM OVC060
     FM031800 15009KT 4SM -SN OVC040
     FM032100 16010G23KT 2SM -SNPL OVC045
     FM040000 18015G24KT 6SM -RA OVC020
     FM040800 25020G26KT P6SM VCSH OVC015=



000
FTUS41 KBUF 031100
TAFROC
TAF
KROC 031121Z 0312/0412 21006KT P6SM BKN250
     FM031900 15011G22KT 2SM -SN OVC035
     FM032200 16013G24KT 2SM -SNPL OVC035
     FM032300 17014G24KT 6SM -FZRA OVC035
     FM040200 19016G29KT 6SM -RA OVC025
     FM040700 23017G29KT 6SM BR VCSH OVC015=



000
FTUS41 KBUF 031100
TAFIAG
TAF
KIAG 031121Z 0312/0412 00000KT P6SM BKN250
     FM031600 14006KT P6SM VCSH OVC050
     FM031900 15009KT 2SM -SN OVC045
     FM032100 15010G21KT 2SM -SNPL OVC045
     FM040100 19014G27KT 6SM -RA OVC015
     FM040700 24019G26KT 6SM BR VCSH OVC015=



000
FTUS41 KBUF 031100
TAFBUF
TAF
KBUF 031121Z 0312/0412 15005KT P6SM BKN250
     FM031600 15009KT P6SM VCSH OVC035
     FM031800 15009KT 5SM -SN OVC040
     FM032100 16010G23KT 2SM -SNPL OVC045
     FM040000 18015G24KT 6SM -RA OVC020
     FM040800 25020G26KT P6SM VCSH OVC015=



000
FTUS41 KBUF 031100
TAFART
TAF
KART 031121Z 0312/0412 16004KT P6SM FEW250
     FM032000 16008KT P6SM VCSH OVC070
     FM032200 16010G20KT 2SM -SN OVC035
     FM040300 18016G26KT 2SM -SNPLRA OVC020
     FM040800 22019G30KT 4SM BR VCSH OVC020
     FM041100 24018KT P6SM OVC020=



000
FTUS41 KBUF 031100
TAFJHW
TAF
KJHW 031121Z 0312/0412 14005KT P6SM OVC090
     FM031700 16011G20KT P6SM -SN OVC035
     FM031900 16014G24KT 2SM -SNPL OVC030
     FM032100 17016G24KT 6SM -FZRA OVC015
     FM040000 18018G24KT 6SM -RA OVC007
     FM041100 26013G21KT 5SM BR VCSH OVC007
      AMD LTD TO CLD VIS AND WIND=



000
FTUS41 KBUF 030800 AAA
TAFIAG
TAF AMD
KIAG 030857Z 0309/0406 VRB03KT P6SM SCT250
     FM031300 15004KT P6SM BKN120
     FM031500 13005KT P6SM OVC070
     FM031800 14008KT P6SM OVC040
     FM032000 15009KT 2SM -SN OVC035
     FM032100 15010G21KT 2SM -SNPL OVC030
     FM032300 17012G22KT 6SM -FZRA OVC025
     FM040100 19014G27KT 6SM -RA OVC015=



000
FTUS41 KBUF 030800 AAA
TAFART
TAF AMD
KART 030857Z 0309/0406 20004KT P6SM SKC
     FM031300 16004KT P6SM BKN250
     FM031700 17007KT P6SM BKN130
     FM031800 17008KT P6SM BKN070
     FM032200 16010G20KT 2SM -SN OVC035
     FM040300 18016G26KT 3SM -SNPLRA OVC020
     FM040500 19018G30KT 2SM -SN OVC015=



000
FTUS41 KBUF 030800 AAA
TAFROC
TAF AMD
KROC 030857Z 0309/0406 24005KT P6SM FEW250
     FM031400 16006KT P6SM BKN120
     FM031800 15010G16KT P6SM OVC040
     FM032000 15011G22KT 2SM -SN OVC035
     FM032300 17014G24KT 6SM -FZRA OVC035
     FM040200 19016G29KT 6SM -RA OVC025=



000
FTUS41 KBUF 030800 AAA
TAFBUF
TAF AMD
KBUF 030857Z 0309/0406 15004KT P6SM SCT250
     FM031300 14005KT P6SM BKN120
     FM031800 15009KT P6SM OVC035
     FM032000 16010G21KT 2SM -SN OVC035
     FM032200 16012G24KT 5SM -RAPL OVC030
     FM040000 18015G24KT 6SM -RA OVC020=



000
FTUS41 KBUF 030800 AAA
TAFJHW
TAF AMD
KJHW 030857Z 0309/0406 14004KT P6SM BKN140
     FM031500 16009KT P6SM OVC035
     FM031800 16014G24KT 4SM -SNPL OVC030
     FM032100 17016G24KT 6SM -RA OVC015
     FM040100 18017G25KT P6SM -FZRA OVC007
      AMD LTD TO CLD VIS AND WIND=



000
FTUS41 KBUF 030500
TAFIAG
TAF
KIAG 030540Z 0306/0406 VRB03KT P6SM SCT250
     FM031300 15004KT P6SM BKN120
     FM031500 13005KT P6SM OVC070
     FM031800 14008KT P6SM OVC040
     FM032000 15009KT 2SM -SN OVC035
     FM032100 15010G21KT 2SM -SNPL OVC030
     FM032300 17012G22KT 6SM -FZRA OVC025
     FM040100 19014G27KT 6SM -RA OVC015=



000
FTUS41 KBUF 030500
TAFJHW
TAF
KJHW 030540Z 0306/0406 00000KT 5SM BR SKC
      TEMPO 0306/0308 2SM BR FEW001
     FM030800 14004KT P6SM BKN140
     FM031500 16009KT P6SM OVC035
     FM031800 16014G24KT 4SM -SNPL OVC030
     FM032100 17016G24KT 6SM -RA OVC015
     FM040100 18017G25KT P6SM -FZRA OVC007
      AMD LTD TO CLD VIS AND WIND=



000
FTUS41 KBUF 030500
TAFBUF
TAF
KBUF 030540Z 0306/0406 VRB06KT P6SM SCT250
     FM030700 VRB03KT P6SM SCT250
     FM031300 14005KT P6SM BKN120
     FM031800 15009KT P6SM OVC035
     FM032000 16010G21KT 2SM -SN OVC035
     FM032200 16012G24KT 5SM -RAPL OVC030
     FM040000 18015G24KT 6SM -RA OVC020=



000
FTUS41 KBUF 030500
TAFROC
TAF
KROC 030540Z 0306/0406 24005KT P6SM FEW250
     FM031400 16006KT P6SM BKN120
     FM031800 15010G16KT P6SM OVC040
     FM032000 15011G22KT 2SM -SN OVC035
     FM032300 17014G24KT 6SM -FZRA OVC035
     FM040200 19016G29KT 6SM -RA OVC025=



000
FTUS41 KBUF 030500
TAFART
TAF
KART 030540Z 0306/0406 20004KT P6SM SKC
     FM031300 16004KT P6SM BKN250
     FM031700 17007KT P6SM BKN130
     FM031800 17008KT P6SM BKN070
     FM032200 16010G20KT 2SM -SN OVC035
     FM040300 18016G26KT 3SM -SNPLRA OVC020
     FM040500 19018G30KT 2SM -SN OVC015=



000
FTUS41 KBUF 030500
TAFROC
TAF
KROC 030540Z 0306/0406 24005KT P6SM FEW250
     FM031400 16006KT P6SM BKN120
     FM031800 15010G16KT P6SM OVC040
     FM032000 15011G22KT 2SM -SN OVC035
     FM032300 17014G24KT 6SM -FZRA OVC035
     FM040200 19016G29KT 6SM -RA OVC025=



000
FTUS41 KBUF 030500
TAFART
TAF
KART 030540Z 0306/0406 20004KT P6SM SKC
     FM031300 16004KT P6SM BKN250
     FM031700 17007KT P6SM BKN130
     FM031800 17008KT P6SM BKN070
     FM032200 16010G20KT 2SM -SN OVC035
     FM040300 18016G26KT 3SM -SNPLRA OVC020
     FM040500 19018G30KT 2SM -SN OVC015=



000
FTUS41 KBUF 030500
TAFJHW
TAF
KJHW 030540Z 0306/0406 00000KT 5SM BR SKC
      TEMPO 0306/0308 2SM BR FEW001
     FM030800 14004KT P6SM BKN140
     FM031500 16009KT P6SM OVC035
     FM031800 16014G24KT 4SM -SNPL OVC030
     FM032100 17016G24KT 6SM -RA OVC015
     FM040100 18017G25KT P6SM -FZRA OVC007
      AMD LTD TO CLD VIS AND WIND=



000
FTUS41 KBUF 030500
TAFBUF
TAF
KBUF 030540Z 0306/0406 VRB06KT P6SM SCT250
     FM030700 VRB03KT P6SM SCT250
     FM031300 14005KT P6SM BKN120
     FM031800 15009KT P6SM OVC035
     FM032000 16010G21KT 2SM -SN OVC035
     FM032200 16012G24KT 5SM -RAPL OVC030
     FM040000 18015G24KT 6SM -RA OVC020=



000
FTUS41 KBUF 030500
TAFIAG
TAF
KIAG 030540Z 0306/0406 VRB03KT P6SM SCT250
     FM031300 15004KT P6SM BKN120
     FM031500 13005KT P6SM OVC070
     FM031800 14008KT P6SM OVC040
     FM032000 15009KT 2SM -SN OVC035
     FM032100 15010G21KT 2SM -SNPL OVC030
     FM032300 17012G22KT 6SM -FZRA OVC025
     FM040100 19014G27KT 6SM -RA OVC015=



000
FTUS41 KBUF 030200 AAA
TAFROC
TAF AMD
KROC 030251Z 0303/0324 27007KT P6SM FEW035
     FM030400 29008KT P6SM FEW250
     FM031400 16006KT P6SM BKN120
     FM031800 15010G16KT P6SM OVC040
     FM032000 15011G19KT 2SM -SN OVC035
     FM032300 17014G29KT 3SM -SNPL OVC035=



000
FTUS41 KBUF 030200 AAA
TAFART
TAF AMD
KART 030251Z 0303/0324 27010KT P6SM SKC
     FM030600 VRB03KT P6SM SCT250
     FM031300 16004KT P6SM BKN250
     FM031800 17008KT P6SM BKN070
     FM032100 16009KT P6SM VCSH OVC040
     FM032200 16010G21KT 2SM -SN OVC035=



000
FTUS41 KBUF 030200 AAA
TAFJHW
TAF AMD
KJHW 030251Z 0303/0324 30005KT P6SM SCT250
     FM030800 14004KT P6SM BKN140
     FM031500 16009KT P6SM OVC035
     FM031900 16014G23KT 2SM -SN OVC030
     FM032100 17016G27KT 2SM -SNPL OVC015
     FM032300 17017G33KT 6SM -FZRA OVC015
      AMD LTD TO CLD VIS AND WIND=



000
FTUS41 KBUF 030200 AAA
TAFBUF
TAF AMD
KBUF 030251Z 0303/0324 27007KT P6SM FEW250
     FM031200 14004KT P6SM BKN130
     FM031500 14006KT P6SM OVC070
     FM032000 16010G18KT 2SM -SN OVC040
     FM032300 18013G29KT 2SM -SNPL OVC030=



000
FTUS41 KBUF 030200 AAA
TAFIAG
TAF AMD
KIAG 030251Z 0303/0324 27007KT P6SM BKN035
     FM030400 27004KT P6SM FEW250
     FM031100 16004KT P6SM BKN200
     FM031300 15004KT P6SM BKN120
     FM031800 14008KT P6SM OVC040
     FM032000 15009KT 2SM -SN OVC045
     FM032300 17012G27KT 2SM -SNPL OVC025=



000
FTUS41 KBUF 030200 AAA
TAFROC
TAF AMD
KROC 030251Z 0303/0324 27007KT P6SM FEW035
     FM030400 29008KT P6SM FEW250
     FM031400 16006KT P6SM BKN120
     FM031800 15010G16KT P6SM OVC040
     FM032000 15011G19KT 2SM -SN OVC035
     FM032300 17014G29KT 3SM -SNPL OVC035=



000
FTUS41 KBUF 030200 AAA
TAFBUF
TAF AMD
KBUF 030251Z 0303/0324 27007KT P6SM FEW250
     FM031200 14004KT P6SM BKN130
     FM031500 14006KT P6SM OVC070
     FM032000 16010G18KT 2SM -SN OVC040
     FM032300 18013G29KT 2SM -SNPL OVC030=



000
FTUS41 KBUF 030200 AAA
TAFJHW
TAF AMD
KJHW 030251Z 0303/0324 30005KT P6SM SCT250
     FM030800 14004KT P6SM BKN140
     FM031500 16009KT P6SM OVC035
     FM031900 16014G23KT 2SM -SN OVC030
     FM032100 17016G27KT 2SM -SNPL OVC015
     FM032300 17017G33KT 6SM -FZRA OVC015
      AMD LTD TO CLD VIS AND WIND=



000
FTUS41 KBUF 030200 AAA
TAFART
TAF AMD
KART 030251Z 0303/0324 27010KT P6SM SKC
     FM030600 VRB03KT P6SM SCT250
     FM031300 16004KT P6SM BKN250
     FM031800 17008KT P6SM BKN070
     FM032100 16009KT P6SM VCSH OVC040
     FM032200 16010G21KT 2SM -SN OVC035=



000
FTUS41 KBUF 030200 AAA
TAFIAG
TAF AMD
KIAG 030251Z 0303/0324 27007KT P6SM BKN035
     FM030400 27004KT P6SM FEW250
     FM031100 16004KT P6SM BKN200
     FM031300 15004KT P6SM BKN120
     FM031800 14008KT P6SM OVC040
     FM032000 15009KT 2SM -SN OVC045
     FM032300 17012G27KT 2SM -SNPL OVC025=



000
FTUS41 KBUF 022300
TAFBUF
TAF
KBUF 022339Z 0300/0324 28012KT P6SM FEW035
     FM030100 27007KT P6SM FEW250
     FM031200 14004KT P6SM BKN130
     FM031500 14006KT P6SM OVC070
     FM032000 16010G18KT 2SM -SN OVC040
     FM032300 18013G29KT 2SM -SNPL OVC030=



000
FTUS41 KBUF 022300
TAFJHW
TAF
KJHW 022339Z 0300/0324 30010KT P6SM BKN025
     FM030200 30008KT P6SM SCT250
     FM030800 14004KT P6SM BKN140
     FM031500 16009KT P6SM OVC035
     FM031900 16014G23KT 2SM -SN OVC030
     FM032100 17016G27KT 2SM -SNPL OVC015
     FM032300 17017G33KT 6SM -FZRA OVC015
      AMD LTD TO CLD VIS AND WIND=



000
FTUS41 KBUF 022300
TAFROC
TAF
KROC 022339Z 0300/0324 29010KT P6SM FEW035
     FM030100 29008KT P6SM FEW250
     FM031400 16006KT P6SM BKN120
     FM031800 15010G16KT P6SM OVC040
     FM032000 15011G19KT 2SM -SN OVC035
     FM032300 17014G29KT 3SM -SNPL OVC035=



000
FTUS41 KBUF 022300
TAFIAG
TAF
KIAG 022339Z 0300/0324 28007KT P6SM FEW040
     FM030100 27004KT P6SM FEW250
     FM031100 16004KT P6SM BKN200
     FM031300 15004KT P6SM BKN120
     FM031800 14008KT P6SM OVC040
     FM032000 15009KT 2SM -SN OVC045
     FM032300 17012G27KT 2SM -SNPL OVC025=



000
FTUS41 KBUF 022300
TAFART
TAF
KART 022339Z 0300/0324 28009KT P6SM VCSH FEW045
     FM030600 VRB03KT P6SM SCT250
     FM031300 16004KT P6SM BKN250
     FM031800 17008KT P6SM BKN070
     FM032100 16009KT P6SM VCSH OVC040
     FM032200 16010G21KT 2SM -SN OVC035=



000
FTUS41 KBUF 022300
TAFBUF
TAF
KBUF 022339Z 0300/0324 28012KT P6SM FEW035
     FM030100 27007KT P6SM FEW250
     FM031200 14004KT P6SM BKN130
     FM031500 14006KT P6SM OVC070
     FM032000 16010G18KT 2SM -SN OVC040
     FM032300 18013G29KT 2SM -SNPL OVC030=



000
FTUS41 KBUF 022300
TAFROC
TAF
KROC 022339Z 0300/0324 29010KT P6SM FEW035
     FM030100 29008KT P6SM FEW250
     FM031400 16006KT P6SM BKN120
     FM031800 15010G16KT P6SM OVC040
     FM032000 15011G19KT 2SM -SN OVC035
     FM032300 17014G29KT 3SM -SNPL OVC035=



000
FTUS41 KBUF 022300
TAFJHW
TAF
KJHW 022339Z 0300/0324 30010KT P6SM BKN025
     FM030200 30008KT P6SM SCT250
     FM030800 14004KT P6SM BKN140
     FM031500 16009KT P6SM OVC035
     FM031900 16014G23KT 2SM -SN OVC030
     FM032100 17016G27KT 2SM -SNPL OVC015
     FM032300 17017G33KT 6SM -FZRA OVC015
      AMD LTD TO CLD VIS AND WIND=



000
FTUS41 KBUF 022300
TAFIAG
TAF
KIAG 022339Z 0300/0324 28007KT P6SM FEW040
     FM030100 27004KT P6SM FEW250
     FM031100 16004KT P6SM BKN200
     FM031300 15004KT P6SM BKN120
     FM031800 14008KT P6SM OVC040
     FM032000 15009KT 2SM -SN OVC045
     FM032300 17012G27KT 2SM -SNPL OVC025=



000
FTUS41 KBUF 022300
TAFART
TAF
KART 022339Z 0300/0324 28009KT P6SM VCSH FEW045
     FM030600 VRB03KT P6SM SCT250
     FM031300 16004KT P6SM BKN250
     FM031800 17008KT P6SM BKN070
     FM032100 16009KT P6SM VCSH OVC040
     FM032200 16010G21KT 2SM -SN OVC035=



000
FTUS41 KBUF 022000 AAA
TAFBUF
TAF AMD
KBUF 022048Z 0221/0318 27017G24KT 6SM BLSN BKN050
     FM022200 28013G19KT P6SM SCT050
     FM030100 27006KT P6SM FEW250
     FM030600 18004KT P6SM FEW250
     FM031200 14004KT P6SM OVC120=



000
FTUS41 KBUF 022000 AAA
TAFIAG
TAF AMD
KIAG 022048Z 0221/0318 28016KT 6SM BLSN BKN050
     FM022300 28011KT P6SM SCT035
     FM030400 23004KT P6SM FEW250
     FM030600 19004KT P6SM FEW250
     FM031200 15004KT P6SM OVC120=



000
FTUS41 KBUF 022000 AAA
TAFART
TAF AMD
KART 022048Z 0221/0318 26018G28KT 6SM BLSN BKN050
     FM022200 27015G24KT 6SM BLSN SCT050
     FM030000 27007KT P6SM SCT030
     FM030300 25004KT P6SM FEW250
     FM031300 16004KT P6SM SCT250
     FM031700 17007KT P6SM BKN090=



000
FTUS41 KBUF 022000 AAA
TAFJHW
TAF AMD
KJHW 022048Z 0221/0318 28015G20KT 6SM BLSN BKN025
     FM022300 30011KT P6SM SCT025 BKN040
     FM030100 30007KT P6SM SCT250
     FM030900 17004KT P6SM BKN130
     FM031700 16011G18KT P6SM VCSH OVC060
      AMD LTD TO CLD VIS AND WIND=



000
FTUS41 KBUF 022000 AAA
TAFROC
TAF AMD
KROC 022048Z 0221/0318 28020G29KT 6SM BLSN VCSH BKN030 BKN120
     FM022200 29016KT 6SM BLSN SCT250
     FM030100 28008KT P6SM FEW250
     FM031000 20004KT P6SM SCT200
     FM031400 16006KT P6SM BKN120=



000
FTUS41 KBUF 022000 AAA
TAFIAG
TAF AMD
KIAG 022048Z 0221/0318 28016KT 6SM BLSN BKN050
     FM022300 28011KT P6SM SCT035
     FM030400 23004KT P6SM FEW250
     FM030600 19004KT P6SM FEW250
     FM031200 15004KT P6SM OVC120=



000
FTUS41 KBUF 022000 AAA
TAFART
TAF AMD
KART 022048Z 0221/0318 26018G28KT 6SM BLSN BKN050
     FM022200 27015G24KT 6SM BLSN SCT050
     FM030000 27007KT P6SM SCT030
     FM030300 25004KT P6SM FEW250
     FM031300 16004KT P6SM SCT250
     FM031700 17007KT P6SM BKN090=



000
FTUS41 KBUF 022000 AAA
TAFJHW
TAF AMD
KJHW 022048Z 0221/0318 28015G20KT 6SM BLSN BKN025
     FM022300 30011KT P6SM SCT025 BKN040
     FM030100 30007KT P6SM SCT250
     FM030900 17004KT P6SM BKN130
     FM031700 16011G18KT P6SM VCSH OVC060
      AMD LTD TO CLD VIS AND WIND=



000
FTUS41 KBUF 022000 AAA
TAFBUF
TAF AMD
KBUF 022048Z 0221/0318 27017G24KT 6SM BLSN BKN050
     FM022200 28013G19KT P6SM SCT050
     FM030100 27006KT P6SM FEW250
     FM030600 18004KT P6SM FEW250
     FM031200 14004KT P6SM OVC120=



000
FTUS41 KBUF 022000 AAA
TAFROC
TAF AMD
KROC 022048Z 0221/0318 28020G29KT 6SM BLSN VCSH BKN030 BKN120
     FM022200 29016KT 6SM BLSN SCT250
     FM030100 28008KT P6SM FEW250
     FM031000 20004KT P6SM SCT200
     FM031400 16006KT P6SM BKN120=



000
FTUS41 KBUF 021700
TAFIAG
TAF
KIAG 021732Z 0218/0318 28019G25KT 6SM -SN BLSN BKN035
     FM022000 28016KT 6SM BLSN FEW250
     FM022300 28011KT P6SM FEW030
     FM030400 23004KT P6SM FEW250
     FM030600 19004KT P6SM FEW250
     FM031200 15004KT P6SM OVC120=



000
FTUS41 KBUF 021700
TAFROC
TAF
KROC 021732Z 0218/0318 28020G28KT 5SM -SN BLSN BKN035
     FM022000 28020G29KT 6SM BLSN BKN120
     FM022200 29016KT 6SM BLSN SCT250
     FM030100 28008KT P6SM FEW250
     FM031000 20004KT P6SM SCT200
     FM031400 16006KT P6SM BKN120=



000
FTUS41 KBUF 021700
TAFJHW
TAF
KJHW 021732Z 0218/0318 28016KT 6SM BLSN BKN025
     FM022000 28016KT 6SM BLSN BKN035
     FM022300 30011KT P6SM SCT025 BKN040
     FM030100 30007KT P6SM SCT250
     FM030900 17004KT P6SM BKN130
     FM031700 16011G18KT P6SM VCSH OVC060
      AMD LTD TO CLD VIS AND WIND=



000
FTUS41 KBUF 021700
TAFART
TAF
KART 021732Z 0218/0318 26018G28KT 5SM -SN BLSN BKN035
     FM022200 27015G24KT 6SM BLSN SCT050
     FM030000 27007KT P6SM SCT030
     FM030300 25004KT P6SM FEW250
     FM031300 16004KT P6SM SCT250
     FM031700 17007KT P6SM BKN090=



000
FTUS41 KBUF 021700
TAFBUF
TAF
KBUF 021732Z 0218/0318 26018G28KT 6SM -SN BLSN BKN025
     FM022000 27017G24KT 6SM BLSN SCT020
     FM022200 28013G19KT P6SM FEW030
     FM030100 27006KT P6SM FEW250
     FM030600 18004KT P6SM FEW250
     FM031200 14004KT P6SM OVC120=



000
FTUS41 KBUF 021700
TAFART
TAF
KART 021732Z 0218/0318 26018G28KT 5SM -SN BLSN BKN035
     FM022200 27015G24KT 6SM BLSN SCT050
     FM030000 27007KT P6SM SCT030
     FM030300 25004KT P6SM FEW250
     FM031300 16004KT P6SM SCT250
     FM031700 17007KT P6SM BKN090=



000
FTUS41 KBUF 021700
TAFIAG
TAF
KIAG 021732Z 0218/0318 28019G25KT 6SM -SN BLSN BKN035
     FM022000 28016KT 6SM BLSN FEW250
     FM022300 28011KT P6SM FEW030
     FM030400 23004KT P6SM FEW250
     FM030600 19004KT P6SM FEW250
     FM031200 15004KT P6SM OVC120=



000
FTUS41 KBUF 021700
TAFBUF
TAF
KBUF 021732Z 0218/0318 26018G28KT 6SM -SN BLSN BKN025
     FM022000 27017G24KT 6SM BLSN SCT020
     FM022200 28013G19KT P6SM FEW030
     FM030100 27006KT P6SM FEW250
     FM030600 18004KT P6SM FEW250
     FM031200 14004KT P6SM OVC120=



000
FTUS41 KBUF 021700
TAFROC
TAF
KROC 021732Z 0218/0318 28020G28KT 5SM -SN BLSN BKN035
     FM022000 28020G29KT 6SM BLSN BKN120
     FM022200 29016KT 6SM BLSN SCT250
     FM030100 28008KT P6SM FEW250
     FM031000 20004KT P6SM SCT200
     FM031400 16006KT P6SM BKN120=



000
FTUS41 KBUF 021700
TAFJHW
TAF
KJHW 021732Z 0218/0318 28016KT 6SM BLSN BKN025
     FM022000 28016KT 6SM BLSN BKN035
     FM022300 30011KT P6SM SCT025 BKN040
     FM030100 30007KT P6SM SCT250
     FM030900 17004KT P6SM BKN130
     FM031700 16011G18KT P6SM VCSH OVC060
      AMD LTD TO CLD VIS AND WIND=



000
FTUS41 KBUF 021500 AAA
TAFROC
TAF AMD
KROC 021519Z 0215/0312 26015G21KT 6SM -SN OVC025
     FM021700 27019G28KT 6SM BLSN BKN050
     FM022200 28016KT P6SM BKN060
     FM030600 23006KT P6SM SCT250
     FM031100 19005KT P6SM BKN200=



000
FTUS41 KBUF 021500 AAB
TAFJHW
TAF AMD
KJHW 021519Z 0215/0312 27015KT 5SM -SN BLSN OVC015
     FM021800 28016KT 6SM BLSN VCSH BKN025
     FM022200 29014KT P6SM BKN050
     FM030400 30004KT P6SM SCT050
     FM031100 16007KT P6SM OVC110
      AMD LTD TO CLD VIS AND WIND=



000
FTUS41 KBUF 021500 AAA
TAFIAG
TAF AMD
KIAG 021519Z 0215/0312 26015KT P6SM BKN040
     FM021700 27017G25KT 6SM BLSN SCT050
     FM021900 28017G24KT 6SM BLSN SCT040
     FM030000 28009KT P6SM FEW200
     FM030500 21004KT P6SM SCT250
     FM031100 16004KT P6SM OVC140=



000
FTUS41 KBUF 021500 AAA
TAFART
TAF AMD
KART 021519Z 0215/0312 26015G22KT 4SM -SHSN BLSN BKN030
     FM021700 26019G29KT 6SM BLSN BKN035
     FM022100 26019G27KT 6SM BLSN VCSH SCT040
     FM030100 26008KT P6SM SCT200
     FM030900 16004KT P6SM SCT250=



000
FTUS41 KBUF 021500 AAA
TAFBUF
TAF AMD
KBUF 021519Z 0215/0312 25015KT P6SM BKN035
     FM021800 27018G28KT 6SM BLSN SCT050
     FM022000 28016G24KT 6SM BLSN SCT040
     FM030000 28013G19KT P6SM SCT120
     FM030500 20004KT P6SM SCT250
     FM031100 15004KT P6SM OVC140=



000
FTUS41 KBUF 021200 AAA
TAFJHW
TAF AMD
KJHW 021201Z 0212/0312 24011G18KT 2SM -SN BR OVC012
     FM021500 27015KT 5SM -SN BR OVC015
     FM021800 28016KT P6SM VCSH BKN025
     FM022200 29014KT P6SM BKN050
     FM030400 30004KT P6SM SCT050
     FM031100 16007KT P6SM OVC110
      AMD LTD TO CLD VIS AND WIND=



000
FTUS41 KBUF 021100
TAFIAG
TAF
KIAG 021126Z 0212/0312 24012KT 4SM -SN BKN024 OVC040
     FM021400 26015KT P6SM BKN040
     FM021700 27017G25KT P6SM BKN050
     FM021900 28017G24KT P6SM SCT040
     FM030000 28009KT P6SM FEW200
     FM030500 21004KT P6SM SCT250
     FM031100 16004KT P6SM OVC140=



000
FTUS41 KBUF 021100
TAFJHW
TAF
KJHW 021126Z 0212/0312 24011KT 4SM -SN BR OVC010
     FM021400 27015KT 5SM -SN BR OVC015
     FM021600 28016KT P6SM VCSH BKN025
     FM022200 29014KT P6SM BKN050
     FM030400 30004KT P6SM SCT050
     FM031100 16007KT P6SM OVC110
      AMD LTD TO CLD VIS AND WIND=



000
FTUS41 KBUF 021100
TAFART
TAF
KART 021126Z 0212/0312 24005KT 2SM -SN BR BKN035 OVC070
     FM021400 26015G22KT 5SM -SHSN BLSN BKN030
     FM021700 26019G29KT P6SM BKN035
     FM022100 26019G27KT P6SM SCT040
     FM030100 26008KT P6SM SCT200
     FM030900 16004KT P6SM SCT250=



000
FTUS41 KBUF 021100
TAFBUF
TAF
KBUF 021126Z 0212/0312 24011G21KT 5SM -SN BR SCT010 OVC035
     FM021500 25015KT P6SM BKN035
     FM021800 27016G24KT P6SM BKN050
     FM022000 28016G24KT P6SM SCT040
     FM030000 28013G19KT P6SM SCT120
     FM030500 20004KT P6SM SCT250
     FM031100 15004KT P6SM OVC140=



000
FTUS41 KBUF 021100
TAFROC
TAF
KROC 021126Z 0212/0312 26010KT 2SM -SN OVC030
     FM021400 26015G21KT 5SM -SN OVC035
     FM021700 27019G28KT P6SM BKN050
     FM022200 28016KT P6SM BKN060
     FM030600 23006KT P6SM SCT250
     FM031100 19005KT P6SM BKN200=



000
FTUS41 KBUF 021000 AAC
TAFIAG
TAF AMD
KIAG 021047Z 0211/0306 24015KT 4SM -SN BR SCT020 OVC035
     FM021500 27018G25KT P6SM SCT015 BKN050
     FM030100 24006KT P6SM FEW200=



000
FTUS41 KBUF 021000 AAA
TAFBUF
TAF AMD
KBUF 021046Z 0211/0306 23013KT 3SM -SN BR SCT010 OVC035
     FM021500 26017G24KT P6SM SCT015 BKN140
     FM030000 24006KT P6SM SCT200=



000
FTUS41 KBUF 020900 AAA
TAFROC
TAF AMD
KROC 020916Z 0209/0306 26009KT 4SM -SN FEW015 BKN045
     FM021200 26010KT P6SM VCSH OVC020
     FM021600 28018G28KT P6SM FEW020 BKN150
     FM030000 28009KT P6SM SCT200=



000
FTUS41 KBUF 020900 AAA
TAFJHW
TAF AMD
KJHW 020916Z 0209/0306 24010KT 6SM -SN OVC008
     FM021200 27011KT P6SM VCSH OVC007
     FM021500 28014G21KT P6SM FEW007 OVC140
     FM022200 30011KT P6SM SCT200
      AMD LTD TO CLD VIS AND WIND=



000
FTUS41 KBUF 020900 AAB
TAFIAG
TAF AMD
KIAG 020916Z 0209/0306 24012KT 1 1/2SM -SN BR FEW012 OVC018
     FM021500 27018G25KT 6SM -SN FEW015 BKN150
     FM030100 24006KT P6SM FEW200=



000
FTUS41 KBUF 020900 AAB
TAFBUF
TAF AMD
KBUF 020916Z 0209/0306 23013KT 1SM -SN BR SCT007 OVC015
     FM021100 26013KT 5SM -SN OVC015
     FM021500 26017G24KT P6SM FEW015 BKN140
     FM030000 24006KT P6SM SCT200=



000
FTUS41 KBUF 020900 AAA
TAFROC
TAF AMD
KROC 020916Z 0209/0306 26009KT 4SM -SN FEW015 BKN045
     FM021200 26010KT P6SM VCSH OVC020
     FM021600 28018G28KT P6SM FEW020 BKN150
     FM030000 28009KT P6SM SCT200=



000
FTUS41 KBUF 020900 AAA
TAFJHW
TAF AMD
KJHW 020916Z 0209/0306 24010KT 6SM -SN OVC008
     FM021200 27011KT P6SM VCSH OVC007
     FM021500 28014G21KT P6SM FEW007 OVC140
     FM022200 30011KT P6SM SCT200
      AMD LTD TO CLD VIS AND WIND=



000
FTUS41 KBUF 020900 AAB
TAFBUF
TAF AMD
KBUF 020916Z 0209/0306 23013KT 1SM -SN BR SCT007 OVC015
     FM021100 26013KT 5SM -SN OVC015
     FM021500 26017G24KT P6SM FEW015 BKN140
     FM030000 24006KT P6SM SCT200=



000
FTUS41 KBUF 020900 AAB
TAFIAG
TAF AMD
KIAG 020916Z 0209/0306 24012KT 1 1/2SM -SN BR FEW012 OVC018
     FM021500 27018G25KT 6SM -SN FEW015 BKN150
     FM030100 24006KT P6SM FEW200=



000
FTUS41 KBUF 020900 AAC
TAFART
TAF AMD
KART 020916Z 0209/0306 27009KT 3SM -SN OVC025
      TEMPO 0209/0212 1SM -SN BR OVC020
     FM021300 25011KT 3SM -SHSN OVC020
     FM021700 27018G25KT P6SM SCT060
     FM022300 27011KT P6SM SCT120=



000
FTUS41 KBUF 020800 AAB
TAFART
TAF AMD
KART 020819Z 0208/0306 27009KT 2SM -SN BR BKN025 OVC035
      TEMPO 0208/0210 1SM -SN BR OVC020
     FM021300 25011KT 3SM -SHSN OVC020
     FM021700 27018G25KT P6SM SCT060
     FM022300 27011KT P6SM SCT120=



000
FTUS41 KBUF 020600 AAA
TAFART
TAF AMD
KART 020629Z 0206/0306 24007KT P6SM -SN SCT010 OVC035
     FM021300 25011KT 3SM -SHSN OVC020
     FM021700 27018G25KT P6SM SCT060
     FM022300 27011KT P6SM SCT120=



000
FTUS41 KBUF 020600 AAA
TAFART
TAF AMD
KART 020629Z 0206/0306 24007KT P6SM -SN SCT010 OVC035
     FM021300 25011KT 3SM -SHSN OVC020
     FM021700 27018G25KT P6SM SCT060
     FM022300 27011KT P6SM SCT120=



000
FTUS41 KBUF 020600 AAA
TAFBUF
TAF AMD
KBUF 020626Z 0206/0306 24009KT 6SM -SN BR SCT010 OVC080
     FM020800 25011KT 3SM -SN OVC015
     FM021100 26013KT P6SM VCSH OVC015
     FM021500 26017G24KT P6SM FEW015 BKN140
     FM030000 24006KT P6SM SCT200=



000
FTUS41 KBUF 020600 AAA
TAFIAG
TAF AMD
KIAG 020626Z 0206/0306 24012KT P6SM SCT010 OVC050
     FM020800 25011KT 3SM -SN OVC015
     FM021500 27018G25KT P6SM FEW015 BKN150
     FM030100 24006KT P6SM FEW200=



000
FTUS41 KBUF 020600 AAA
TAFIAG
TAF AMD
KIAG 020626Z 0206/0306 24012KT P6SM SCT010 OVC050
     FM020800 25011KT 3SM -SN OVC015
     FM021500 27018G25KT P6SM FEW015 BKN150
     FM030100 24006KT P6SM FEW200=



000
FTUS41 KBUF 020600 AAA
TAFBUF
TAF AMD
KBUF 020626Z 0206/0306 24009KT 6SM -SN BR SCT010 OVC080
     FM020800 25011KT 3SM -SN OVC015
     FM021100 26013KT P6SM VCSH OVC015
     FM021500 26017G24KT P6SM FEW015 BKN140
     FM030000 24006KT P6SM SCT200=



000
FTUS41 KBUF 020500
TAFART
TAF
KART 020520Z 0206/0306 24005KT 6SM -SHSN BKN008 OVC015
     FM021300 25011KT 2SM -SHSN OVC020
     FM021700 27018G25KT P6SM SCT060
     FM022300 27011KT P6SM SCT120=



000
FTUS41 KBUF 020500
TAFBUF
TAF
KBUF 020520Z 0206/0306 26009KT P6SM -SHSN OVC007
     FM020800 25011KT 2SM -SN OVC015
     FM021100 26013KT P6SM VCSH OVC015
     FM021500 26017G24KT P6SM FEW015 BKN140
     FM030000 24006KT P6SM SCT200=



000
FTUS41 KBUF 020500
TAFIAG
TAF
KIAG 020520Z 0206/0306 26008KT P6SM -SHSN SCT008 OVC015
     FM020800 25011KT 2SM -SN OVC015
     FM021500 27018G25KT P6SM FEW015 BKN150
     FM030100 24006KT P6SM FEW200=



000
FTUS41 KBUF 020500
TAFJHW
TAF
KJHW 020520Z 0206/0306 27008KT 6SM -SHSN OVC007
     FM020900 27009KT 2SM -SHSN OVC007
     FM021200 27011KT P6SM VCSH OVC007
     FM021500 28014G21KT P6SM FEW007 OVC140
     FM022200 30011KT P6SM SCT200
      AMD LTD TO CLD VIS AND WIND=



000
FTUS41 KBUF 020500
TAFROC
TAF
KROC 020520Z 0206/0306 26006KT 5SM -SHSN SCT025 BKN035
     FM021000 26010KT P6SM VCSH OVC020
     FM021600 28018G28KT P6SM FEW020 BKN150
     FM030000 28009KT P6SM SCT200=



000
FTUS41 KBUF 020500
TAFBUF
TAF
KBUF 020520Z 0206/0306 26009KT P6SM -SHSN OVC007
     FM020800 25011KT 2SM -SN OVC015
     FM021100 26013KT P6SM VCSH OVC015
     FM021500 26017G24KT P6SM FEW015 BKN140
     FM030000 24006KT P6SM SCT200=



000
FTUS41 KBUF 020500
TAFROC
TAF
KROC 020520Z 0206/0306 26006KT 5SM -SHSN SCT025 BKN035
     FM021000 26010KT P6SM VCSH OVC020
     FM021600 28018G28KT P6SM FEW020 BKN150
     FM030000 28009KT P6SM SCT200=



000
FTUS41 KBUF 020500
TAFIAG
TAF
KIAG 020520Z 0206/0306 26008KT P6SM -SHSN SCT008 OVC015
     FM020800 25011KT 2SM -SN OVC015
     FM021500 27018G25KT P6SM FEW015 BKN150
     FM030100 24006KT P6SM FEW200=



000
FTUS41 KBUF 020500
TAFART
TAF
KART 020520Z 0206/0306 24005KT 6SM -SHSN BKN008 OVC015
     FM021300 25011KT 2SM -SHSN OVC020
     FM021700 27018G25KT P6SM SCT060
     FM022300 27011KT P6SM SCT120=



000
FTUS41 KBUF 020500
TAFJHW
TAF
KJHW 020520Z 0206/0306 27008KT 6SM -SHSN OVC007
     FM020900 27009KT 2SM -SHSN OVC007
     FM021200 27011KT P6SM VCSH OVC007
     FM021500 28014G21KT P6SM FEW007 OVC140
     FM022200 30011KT P6SM SCT200
      AMD LTD TO CLD VIS AND WIND=



000
FTUS41 KBUF 020300 AAA
TAFIAG
TAF AMD
KIAG 020338Z 0204/0224 26007KT P6SM -SHSN OVC008
     FM020600 26009KT P6SM VCSH SCT020 OVC030
     FM021100 25013KT P6SM OVC035
     FM021300 26016G22KT P6SM OVC035
     FM021600 27018G27KT P6SM BKN100=



000
FTUS41 KBUF 020300 AAA
TAFBUF
TAF AMD
KBUF 020338Z 0204/0224 26008KT 5SM -SHSN BR BKN007 OVC012
     FM020600 25008KT P6SM VCSH SCT020 BKN030
     FM021200 25014G20KT P6SM SCT020 BKN030
     FM021500 26017G24KT P6SM BKN035
     FM022000 28017G26KT P6SM SCT070=



000
FTUS41 KBUF 020300 AAA
TAFJHW
TAF AMD
KJHW 020338Z 0204/0224 26007KT P6SM -SHSN OVC008
     FM020900 28011KT P6SM VCSH BKN020
     FM021400 28014G21KT P6SM BKN025
     FM021900 29014G21KT P6SM BKN090
      AMD LTD TO CLD VIS AND WIND=



000
FTUS41 KBUF 020300 AAA
TAFROC
TAF AMD
KROC 020338Z 0204/0224 26009KT P6SM -SHSN BKN035
     FM020600 26010KT P6SM VCSH OVC025
     FM021400 27017G24KT P6SM OVC035=



000
FTUS41 KBUF 020300 AAA
TAFART
TAF AMD
KART 020338Z 0204/0224 24005KT 2SM -SN OVC015
     FM020600 25006KT P6SM -SHSN OVC025
     FM021500 26017G26KT P6SM BKN035=



000
FTUS41 KBUF 012300
TAFROC
TAF
KROC 012329Z 0200/0224 VRB03KT 1SM -SN OVC015
     FM020200 25004KT 2SM -SN OVC015
     FM020300 26009KT P6SM -SHSN OVC020
     FM020600 26010KT P6SM VCSH OVC025
     FM021400 27017G24KT P6SM OVC035=



000
FTUS41 KBUF 012300
TAFBUF
TAF
KBUF 012329Z 0200/0224 22007KT 1SM -SN OVC015
     FM020200 26008KT 2SM -SN OVC025
     FM020400 25008KT P6SM VCSH OVC025
     FM021200 25014G20KT P6SM OVC020
     FM021500 26017G24KT P6SM BKN035
     FM022000 28017G26KT P6SM SCT070=



000
FTUS41 KBUF 012300
TAFJHW
TAF
KJHW 012329Z 0200/0224 25006KT 2SM -SN SCT007 BKN025
     FM020200 26007KT 4SM -SHSN OVC012
     FM020700 28011KT P6SM VCSH OVC020
     FM021400 28014G21KT P6SM OVC025
     FM021900 29014G21KT P6SM BKN090
      AMD LTD TO CLD VIS AND WIND=



000
FTUS41 KBUF 012300
TAFIAG
TAF
KIAG 012329Z 0200/0224 23006KT 1SM -SN OVC025
     FM020200 26007KT 4SM -SHSN OVC035
     FM020400 26009KT P6SM VCSH OVC030
     FM021000 25013KT P6SM OVC035
     FM021300 26016G22KT P6SM OVC035
     FM021600 27018G27KT P6SM BKN100=



000
FTUS41 KBUF 012300
TAFART
TAF
KART 012329Z 0200/0224 20006KT 1SM -SN OVC020
     FM020300 24005KT 2SM -SN OVC025
     FM020500 25006KT P6SM -SHSN OVC025
     FM021500 26017G26KT P6SM BKN035=



    US Dept of Commerce
    National Oceanic and Atmospheric Administration
    National Weather Service
    1325 East West Highway
    Silver Spring, MD 20910
    Page Author: NWS Internet Services Team
Disclaimer
Information Quality
Credits
Glossary
Privacy Policy
Freedom of Information Act (FOIA)
About Us
Career Opportunities